createdAt,value
2022-09-10T00:00:57.586Z,14.10
2022-09-10T00:03:24.378Z,12.63
2022-09-10T00:05:50.970Z,12.90
2022-09-10T00:08:19.077Z,12.57
2022-09-10T00:10:46.845Z,13.23
2022-09-10T00:13:14.560Z,12.68
2022-09-10T00:15:48.428Z,11.77
2022-09-10T00:18:15.700Z,14.77
2022-09-10T00:20:47.971Z,13.07
2022-09-10T00:23:15.885Z,12.02
2022-09-10T00:25:43.067Z,9.75
2022-09-10T00:28:09.846Z,10.52
2022-09-10T00:30:43.721Z,9.90
2022-09-10T00:33:10.571Z,10.45
2022-09-10T00:35:37.493Z,10.32
2022-09-10T00:38:04.370Z,9.82
2022-09-10T00:40:31.642Z,11.20
2022-09-10T00:42:58.214Z,9.68
2022-09-10T00:45:26.760Z,11.13
2022-09-10T00:47:54.844Z,9.98
2022-09-10T00:50:23.796Z,11.70
2022-09-10T00:52:52.627Z,10.98
2022-09-10T00:55:19.629Z,9.82
2022-09-10T00:57:47.696Z,11.18
2022-09-10T01:00:14.729Z,11.15
2022-09-10T01:02:41.458Z,9.68
2022-09-10T01:05:09.232Z,10.10
2022-09-10T01:07:36.278Z,11.15
2022-09-10T01:10:11.658Z,11.20
2022-09-10T01:12:38.320Z,10.50
2022-09-10T01:15:23.478Z,11.52
2022-09-10T01:18:05.216Z,10.95
2022-09-10T01:20:56.238Z,12.00
2022-09-10T01:23:22.660Z,12.10
2022-09-10T01:25:56.830Z,14.07
2022-09-10T01:28:30.552Z,12.25
2022-09-10T01:31:02.039Z,13.63
2022-09-10T01:33:28.501Z,13.85
2022-09-10T01:35:57.812Z,13.48
2022-09-10T01:38:31.829Z,12.60
2022-09-10T01:40:58.823Z,12.43
2022-09-10T01:43:25.302Z,11.90
2022-09-10T01:45:51.814Z,13.45
2022-09-10T01:48:37.061Z,14.00
2022-09-10T01:51:09.525Z,13.30
2022-09-10T01:53:56.467Z,13.00
2022-09-10T01:56:35.690Z,13.02
2022-09-10T01:59:09.024Z,13.05
2022-09-10T02:01:58.105Z,13.85
2022-09-10T02:04:25.590Z,11.63
2022-09-10T02:06:52.143Z,13.30
2022-09-10T02:09:18.957Z,12.52
2022-09-10T02:11:53.015Z,11.82
2022-09-10T02:14:21.964Z,13.27
2022-09-10T02:16:54.082Z,14.20
2022-09-10T02:19:20.627Z,12.77
2022-09-10T02:21:47.178Z,13.95
2022-09-10T02:24:13.980Z,11.98
2022-09-10T02:26:42.197Z,11.23
2022-09-10T02:29:09.613Z,11.80
2022-09-10T02:31:36.236Z,11.40
2022-09-10T02:34:05.711Z,12.50
2022-09-10T02:36:32.447Z,11.65
2022-09-10T02:38:59.514Z,11.00
2022-09-10T02:41:26.361Z,11.88
2022-09-10T02:43:52.932Z,13.13
2022-09-10T02:46:19.446Z,12.75
2022-09-10T02:48:45.999Z,12.30
2022-09-10T02:51:12.471Z,12.45
2022-09-10T02:53:39.179Z,12.20
2022-09-10T02:56:05.817Z,12.15
2022-09-10T02:58:32.270Z,13.43
2022-09-10T03:01:12.859Z,14.60
2022-09-10T03:03:39.421Z,12.95
2022-09-10T03:06:06.217Z,12.00
2022-09-10T03:08:32.733Z,12.07
2022-09-10T03:10:59.583Z,11.93
2022-09-10T03:13:27.752Z,11.82
2022-09-10T03:15:55.146Z,12.18
2022-09-10T03:18:25.457Z,12.95
2022-09-10T03:20:52.014Z,12.18
2022-09-10T03:23:18.692Z,12.30
2022-09-10T03:25:49.109Z,12.05
2022-09-10T03:28:16.339Z,10.85
2022-09-10T03:30:42.883Z,12.52
2022-09-10T03:33:11.800Z,12.38
2022-09-10T03:35:38.729Z,12.02
2022-09-10T03:38:06.091Z,12.43
2022-09-10T03:40:33.039Z,13.75
2022-09-10T03:42:59.636Z,13.07
2022-09-10T03:45:26.334Z,11.50
2022-09-10T03:47:52.806Z,12.70
2022-09-10T03:50:19.763Z,12.85
2022-09-10T03:52:46.323Z,11.93
2022-09-10T03:55:13.688Z,13.00
2022-09-10T03:57:41.757Z,13.25
2022-09-10T04:00:11.899Z,13.35
2022-09-10T04:02:38.358Z,12.60
2022-09-10T04:05:04.987Z,12.32
2022-09-10T04:07:31.448Z,14.00
2022-09-10T04:09:57.912Z,12.25
2022-09-10T04:12:24.943Z,12.98
2022-09-10T04:14:51.471Z,13.25
2022-09-10T04:17:18.597Z,12.68
2022-09-10T04:19:45.235Z,13.95
2022-09-10T04:22:11.704Z,12.95
2022-09-10T04:24:38.139Z,12.23
2022-09-10T04:27:04.720Z,13.27
2022-09-10T04:29:31.651Z,11.23
2022-09-10T04:31:58.499Z,11.18
2022-09-10T04:34:25.016Z,11.18
2022-09-10T04:36:53.607Z,11.45
2022-09-10T04:39:20.082Z,11.88
2022-09-10T04:41:46.557Z,10.75
2022-09-10T04:44:13.681Z,10.68
2022-09-10T04:46:41.356Z,10.98
2022-09-10T04:49:07.987Z,10.38
2022-09-10T04:51:34.432Z,11.43
2022-09-10T04:54:01.887Z,10.88
2022-09-10T04:56:28.637Z,9.75
2022-09-10T04:58:55.094Z,9.27
2022-09-10T05:01:21.635Z,8.82
2022-09-10T05:03:48.124Z,9.25
2022-09-10T05:06:14.664Z,7.55
2022-09-10T05:08:41.150Z,10.15
2022-09-10T05:11:07.619Z,9.35
2022-09-10T05:13:34.076Z,10.32
2022-09-10T05:16:00.568Z,9.73
2022-09-10T05:18:27.320Z,8.75
2022-09-10T05:20:53.868Z,9.45
2022-09-10T05:23:20.408Z,9.48
2022-09-10T05:25:48.806Z,10.00
2022-09-10T05:28:16.445Z,9.75
2022-09-10T05:30:47.159Z,8.45
2022-09-10T05:33:16.340Z,8.13
2022-09-10T05:35:42.839Z,8.98
2022-09-10T05:38:11.171Z,9.18
2022-09-10T05:40:38.043Z,9.30
2022-09-10T05:43:04.482Z,9.93
2022-09-10T05:45:31.035Z,8.75
2022-09-10T05:47:57.484Z,9.02
2022-09-10T05:50:23.930Z,9.85
2022-09-10T05:52:50.452Z,9.75
2022-09-10T05:55:17.282Z,8.20
2022-09-10T05:57:43.755Z,8.40
2022-09-10T06:00:10.457Z,9.52
2022-09-10T06:02:37.198Z,10.25
2022-09-10T06:05:04.024Z,9.15
2022-09-10T06:07:31.209Z,9.68
2022-09-10T06:09:57.796Z,7.70
2022-09-10T06:12:24.340Z,6.95
2022-09-10T06:14:50.808Z,6.47
2022-09-10T06:17:17.836Z,5.75
2022-09-10T06:19:44.713Z,6.60
2022-09-10T06:22:11.687Z,7.00
2022-09-10T06:24:38.454Z,5.93
2022-09-10T06:27:06.201Z,6.55
2022-09-10T06:29:33.338Z,5.68
2022-09-10T06:32:00.555Z,6.68
2022-09-10T06:34:26.995Z,6.00
2022-09-10T06:36:53.479Z,6.07
2022-09-10T06:39:19.910Z,6.75
2022-09-10T06:41:49.605Z,6.80
2022-09-10T06:44:16.384Z,7.03
2022-09-10T06:49:31.403Z,7.38
2022-09-10T06:51:58.000Z,6.65
2022-09-10T06:54:26.561Z,7.25
2022-09-10T06:56:53.022Z,7.50
2022-09-10T06:59:19.529Z,7.15
2022-09-10T07:01:47.430Z,6.18
2022-09-10T07:04:14.189Z,6.63
2022-09-10T07:06:40.754Z,6.75
2022-09-10T07:09:07.194Z,7.90
2022-09-10T07:11:36.857Z,6.28
2022-09-10T07:14:06.002Z,6.50
2022-09-10T07:16:32.563Z,7.00
2022-09-10T07:18:59.750Z,6.45
2022-09-10T07:21:27.428Z,5.82
2022-09-10T07:23:58.370Z,6.20
2022-09-10T07:26:25.212Z,6.65
2022-09-10T07:28:52.259Z,6.70
2022-09-10T07:31:23.767Z,5.03
2022-09-10T07:33:50.419Z,5.03
2022-09-10T07:36:17.710Z,5.97
2022-09-10T07:38:44.494Z,5.30
2022-09-10T07:41:11.843Z,5.38
2022-09-10T07:43:41.820Z,5.85
2022-09-10T07:46:08.904Z,5.20
2022-09-10T07:48:35.450Z,5.30
2022-09-10T07:51:03.015Z,5.38
2022-09-10T07:53:29.512Z,5.45
2022-09-10T07:56:03.343Z,5.55
2022-09-10T07:58:31.929Z,4.93
2022-09-10T08:00:59.895Z,5.03
2022-09-10T08:03:27.062Z,7.13
2022-09-10T08:05:54.127Z,4.85
2022-09-10T08:08:20.982Z,4.57
2022-09-10T08:10:48.657Z,5.57
2022-09-10T08:13:15.541Z,4.15
2022-09-10T08:15:48.791Z,5.07
2022-09-10T08:18:15.325Z,5.03
2022-09-10T08:20:41.884Z,3.70
2022-09-10T08:23:08.579Z,4.38
2022-09-10T08:25:35.899Z,3.78
2022-09-10T08:28:02.436Z,4.13
2022-09-10T08:30:29.194Z,4.28
2022-09-10T08:32:56.291Z,4.28
2022-09-10T08:35:22.953Z,4.78
2022-09-10T08:37:49.615Z,3.72
2022-09-10T08:40:16.535Z,4.22
2022-09-10T08:42:46.849Z,4.03
2022-09-10T08:45:15.826Z,4.20
2022-09-10T08:47:53.543Z,3.88
2022-09-10T08:50:36.197Z,4.30
2022-09-10T08:53:23.087Z,3.10
2022-09-10T08:55:50.789Z,3.72
2022-09-10T08:58:20.935Z,3.40
2022-09-10T09:00:48.394Z,3.70
2022-09-10T09:03:20.743Z,2.40
2022-09-10T09:05:48.666Z,2.53
2022-09-10T09:08:19.899Z,2.70
2022-09-10T09:10:50.642Z,2.42
2022-09-10T09:13:20.178Z,2.60
2022-09-10T09:15:53.957Z,3.33
2022-09-10T09:18:23.259Z,2.28
2022-09-10T09:20:52.719Z,2.28
2022-09-10T09:23:22.307Z,2.08
2022-09-10T09:25:49.171Z,2.08
2022-09-10T09:28:39.067Z,2.08
2022-09-10T09:31:11.354Z,1.70
2022-09-10T09:33:38.931Z,1.73
2022-09-10T09:36:06.295Z,1.60
2022-09-10T09:38:34.756Z,2.00
2022-09-10T09:41:06.745Z,2.00
2022-09-10T09:43:51.322Z,2.28
2022-09-10T09:46:18.845Z,1.80
2022-09-10T09:48:45.553Z,1.80
2022-09-10T09:51:21.062Z,2.08
2022-09-10T09:54:12.146Z,1.50
2022-09-10T09:56:43.026Z,1.40
2022-09-10T09:59:14.920Z,1.10
2022-09-10T10:01:42.812Z,0.95
2022-09-10T10:04:20.158Z,1.50
2022-09-10T10:06:47.986Z,1.35
2022-09-10T10:09:20.375Z,1.02
2022-09-10T10:11:57.817Z,1.00
2022-09-10T10:14:26.049Z,1.00
2022-09-10T10:16:56.235Z,1.00
2022-09-10T10:21:54.506Z,0.90
2022-09-10T10:24:31.808Z,1.15
2022-09-10T10:26:59.328Z,0.93
2022-09-10T10:29:26.290Z,0.85
2022-09-10T10:31:53.741Z,1.08
2022-09-10T10:34:47.424Z,0.90
2022-09-10T10:37:38.238Z,1.03
2022-09-10T10:40:28.008Z,0.90
2022-09-10T10:43:05.507Z,1.17
2022-09-10T10:45:32.031Z,1.50
2022-09-10T10:48:04.216Z,0.98
2022-09-10T10:50:53.322Z,0.77
2022-09-10T10:53:29.039Z,1.17
2022-09-10T10:56:18.866Z,1.13
2022-09-10T10:59:07.167Z,1.10
2022-09-10T11:01:37.367Z,1.15
2022-09-10T11:04:24.196Z,0.77
2022-09-10T11:07:00.959Z,1.00
2022-09-10T11:09:34.114Z,0.88
2022-09-10T11:12:24.840Z,0.80
2022-09-10T11:14:58.431Z,0.73
2022-09-10T11:17:46.518Z,0.80
2022-09-10T11:20:28.393Z,0.80
2022-09-10T11:23:16.042Z,0.90
2022-09-10T11:26:02.448Z,0.80
2022-09-10T11:28:47.537Z,0.80
2022-09-10T11:31:43.599Z,0.80
2022-09-10T11:34:28.875Z,0.80
2022-09-10T11:37:02.255Z,1.00
2022-09-10T11:39:28.663Z,1.00
2022-09-10T11:41:58.662Z,1.08
2022-09-10T11:44:37.835Z,1.05
2022-09-10T11:47:14.405Z,1.52
2022-09-10T11:49:48.402Z,0.93
2022-09-10T11:54:41.454Z,1.13
2022-09-10T11:57:26.536Z,1.65
2022-09-10T11:59:53.028Z,1.00
2022-09-10T12:02:34.696Z,1.45
2022-09-10T12:05:16.188Z,0.95
2022-09-10T12:08:01.476Z,1.52
2022-09-10T12:10:47.727Z,1.30
2022-09-10T12:13:15.267Z,1.23
2022-09-10T12:15:50.456Z,1.52
2022-09-10T12:18:22.374Z,1.25
2022-09-10T12:20:50.794Z,1.80
2022-09-10T12:23:19.579Z,0.88
2022-09-10T12:25:56.343Z,1.25
2022-09-10T12:28:41.801Z,0.70
2022-09-10T12:31:10.084Z,1.10
2022-09-10T12:33:57.762Z,0.75
2022-09-10T12:36:27.374Z,1.10
2022-09-10T12:39:12.637Z,1.35
2022-09-10T12:41:39.067Z,1.30
2022-09-10T12:44:25.010Z,1.10
2022-09-10T12:47:10.195Z,0.70
2022-09-10T12:49:44.168Z,1.15
2022-09-10T12:54:40.473Z,0.60
2022-09-10T12:57:26.007Z,0.50
2022-09-10T13:00:02.999Z,0.63
2022-09-10T13:02:37.465Z,0.57
2022-09-10T13:05:19.191Z,0.75
2022-09-10T13:07:46.434Z,0.80
2022-09-10T13:10:22.045Z,0.80
2022-09-10T13:12:50.395Z,0.63
2022-09-10T13:15:20.915Z,0.52
2022-09-10T13:17:47.342Z,0.80
2022-09-10T13:20:22.949Z,0.60
2022-09-10T13:22:55.975Z,0.50
2022-09-10T13:25:27.132Z,0.60
2022-09-10T13:27:53.686Z,0.82
2022-09-10T13:30:21.899Z,0.70
2022-09-10T13:32:52.159Z,0.60
2022-09-10T13:35:21.908Z,0.63
2022-09-10T13:38:07.110Z,0.47
2022-09-10T13:40:41.007Z,1.08
2022-09-10T13:43:07.462Z,0.60
2022-09-10T13:45:41.630Z,0.95
2022-09-10T13:48:17.506Z,0.80
2022-09-10T13:51:16.635Z,0.70
2022-09-10T13:53:45.339Z,0.93
2022-09-10T13:56:38.983Z,1.80
2022-09-10T13:59:06.194Z,0.73
2022-09-10T14:01:47.831Z,1.00
2022-09-10T14:04:23.524Z,0.70
2022-09-10T14:06:50.626Z,0.80
2022-09-10T14:09:17.334Z,0.73
2022-09-10T14:11:44.172Z,0.60
2022-09-10T14:14:12.844Z,0.93
2022-09-10T14:16:52.666Z,0.75
2022-09-10T14:19:22.299Z,0.45
2022-09-10T14:21:49.839Z,1.15
2022-09-10T14:24:27.335Z,1.13
2022-09-10T14:27:17.113Z,0.70
2022-09-10T14:29:43.665Z,0.90
2022-09-10T14:32:26.671Z,1.05
2022-09-10T14:34:53.339Z,0.70
2022-09-10T14:37:32.440Z,0.85
2022-09-10T14:40:06.148Z,0.85
2022-09-10T14:42:35.080Z,0.65
2022-09-10T14:45:02.858Z,0.70
2022-09-10T14:47:33.610Z,0.60
2022-09-10T14:50:34.195Z,1.17
2022-09-10T14:53:00.719Z,0.90
2022-09-10T14:55:28.931Z,0.50
2022-09-10T14:57:55.854Z,0.80
2022-09-10T15:00:23.202Z,0.68
2022-09-10T15:02:53.865Z,0.85
2022-09-10T15:05:20.724Z,0.73
2022-09-10T15:07:50.394Z,0.90
2022-09-10T15:10:17.173Z,0.70
2022-09-10T15:12:45.296Z,0.82
2022-09-10T15:15:17.390Z,0.50
2022-09-10T15:17:44.309Z,0.90
2022-09-10T15:20:14.869Z,0.45
2022-09-10T15:22:41.387Z,0.70
2022-09-10T15:25:10.896Z,0.52
2022-09-10T15:27:37.735Z,0.70
2022-09-10T15:30:05.372Z,0.68
2022-09-10T15:32:31.892Z,0.80
2022-09-10T15:34:59.091Z,0.82
2022-09-10T15:37:25.656Z,1.00
2022-09-10T15:39:52.914Z,0.95
2022-09-10T15:42:19.411Z,0.60
2022-09-10T15:44:45.828Z,0.80
2022-09-10T15:47:12.283Z,0.68
2022-09-10T15:49:38.751Z,1.10
2022-09-10T15:52:05.259Z,1.10
2022-09-10T15:54:33.417Z,0.93
2022-09-10T15:57:00.472Z,1.00
2022-09-10T15:59:26.927Z,1.10
2022-09-10T16:01:53.386Z,0.70
2022-09-10T16:04:19.898Z,0.70
2022-09-10T16:06:46.375Z,1.08
2022-09-10T16:09:13.611Z,0.80
2022-09-10T16:11:41.362Z,0.95
2022-09-10T16:14:08.631Z,1.00
2022-09-10T16:16:36.108Z,0.90
2022-09-10T16:19:03.206Z,1.00
2022-09-10T16:21:31.091Z,0.70
2022-09-10T16:23:58.535Z,1.00
2022-09-10T16:26:27.282Z,1.33
2022-09-10T16:28:54.930Z,1.17
2022-09-10T16:31:25.336Z,0.93
2022-09-10T16:33:55.014Z,1.35
2022-09-10T16:36:23.610Z,0.93
2022-09-10T16:38:57.045Z,1.00
2022-09-10T16:41:24.561Z,1.20
2022-09-10T16:43:51.531Z,0.88
2022-09-10T16:46:18.602Z,1.00
2022-09-10T16:48:45.271Z,0.85
2022-09-10T16:51:15.782Z,1.25
2022-09-10T16:53:44.384Z,0.82
2022-09-10T16:56:12.804Z,1.02
2022-09-10T16:58:39.642Z,1.38
2022-09-10T17:01:09.195Z,1.05
2022-09-10T17:03:36.131Z,1.40
2022-09-10T17:06:02.650Z,0.80
2022-09-10T17:08:29.519Z,0.80
2022-09-10T17:10:56.710Z,1.05
2022-09-10T17:13:23.254Z,0.68
2022-09-10T17:15:49.714Z,0.82
2022-09-10T17:18:16.674Z,1.02
2022-09-10T17:20:44.843Z,0.65
2022-09-10T17:23:12.796Z,0.80
2022-09-10T17:25:39.294Z,1.02
2022-09-10T17:28:05.762Z,1.00
2022-09-10T17:30:32.247Z,0.85
2022-09-10T17:32:59.589Z,1.27
2022-09-10T17:35:26.212Z,2.30
2022-09-10T17:37:52.806Z,2.28
2022-09-10T17:40:20.936Z,2.05
2022-09-10T17:42:48.468Z,1.98
2022-09-10T17:45:15.071Z,1.92
2022-09-10T17:47:41.630Z,1.63
2022-09-10T17:50:08.529Z,1.25
2022-09-10T17:52:35.528Z,1.45
2022-09-10T17:55:02.757Z,1.40
2022-09-10T17:57:29.270Z,1.80
2022-09-10T17:59:55.764Z,1.50
2022-09-10T18:02:22.470Z,1.00
2022-09-10T18:04:50.401Z,0.80
2022-09-10T18:07:17.104Z,1.30
2022-09-10T18:09:43.758Z,0.73
2022-09-10T18:12:10.501Z,0.93
2022-09-10T18:14:38.619Z,1.20
2022-09-10T18:17:05.138Z,1.20
2022-09-10T18:19:33.208Z,1.35
2022-09-10T18:22:01.539Z,1.15
2022-09-10T18:24:28.488Z,1.70
2022-09-10T18:26:55.144Z,1.20
2022-09-10T18:29:22.800Z,1.00
2022-09-10T18:31:51.207Z,0.80
2022-09-10T18:34:23.296Z,1.50
2022-09-10T18:36:57.643Z,1.13
2022-09-10T18:39:25.033Z,0.90
2022-09-10T18:41:51.978Z,1.10
2022-09-10T18:44:20.812Z,0.88
2022-09-10T18:46:48.268Z,0.93
2022-09-10T18:49:20.442Z,1.35
2022-09-10T18:51:48.144Z,2.30
2022-09-10T18:54:15.472Z,1.55
2022-09-10T18:56:42.346Z,1.60
2022-09-10T18:59:13.016Z,1.27
2022-09-10T19:01:40.835Z,1.33
2022-09-10T19:04:07.999Z,1.00
2022-09-10T19:06:36.221Z,1.60
2022-09-10T19:09:07.560Z,1.75
2022-09-10T19:11:35.291Z,2.08
2022-09-10T19:14:02.462Z,1.92
2022-09-10T19:16:30.345Z,2.00
2022-09-10T19:18:57.959Z,2.15
2022-09-10T19:21:26.491Z,2.13
2022-09-10T19:23:59.497Z,1.60
2022-09-10T19:26:27.595Z,1.90
2022-09-10T19:28:55.643Z,1.52
2022-09-10T19:31:22.172Z,10.63
2022-09-10T19:33:58.417Z,36.78
2022-09-10T19:36:27.689Z,15.07
2022-09-10T19:38:54.927Z,10.20
2022-09-10T19:41:21.443Z,7.38
2022-09-10T19:43:48.873Z,17.65
2022-09-10T19:46:16.578Z,19.38
2022-09-10T19:48:43.673Z,14.20
2022-09-10T19:51:19.443Z,17.65
2022-09-10T19:53:46.177Z,9.88
2022-09-10T19:56:20.243Z,6.53
2022-09-10T19:58:49.831Z,4.85
2022-09-10T20:01:26.937Z,6.25
2022-09-10T20:03:54.265Z,5.50
2022-09-10T20:06:21.510Z,4.78
2022-09-10T20:08:50.479Z,4.75
2022-09-10T20:11:18.478Z,4.35
2022-09-10T20:13:47.908Z,4.53
2022-09-10T20:16:16.014Z,5.72
2022-09-10T20:18:42.689Z,6.05
2022-09-10T20:21:13.827Z,5.93
2022-09-10T20:23:41.487Z,7.10
2022-09-10T20:26:10.454Z,6.90
2022-09-10T20:28:37.366Z,8.85
2022-09-10T20:31:05.979Z,8.35
2022-09-10T20:33:32.562Z,6.00
2022-09-10T20:35:59.052Z,5.90
2022-09-10T20:38:26.263Z,6.97
2022-09-10T20:40:52.792Z,6.10
2022-09-10T20:43:19.867Z,4.93
2022-09-10T20:45:46.831Z,5.05
2022-09-10T20:48:13.463Z,3.22
2022-09-10T20:50:39.987Z,3.92
2022-09-10T20:53:06.447Z,3.60
2022-09-10T20:55:32.951Z,3.70
2022-09-10T20:57:59.411Z,2.88
2022-09-10T21:00:25.942Z,3.35
2022-09-10T21:02:52.468Z,3.03
2022-09-10T21:05:20.722Z,2.85
2022-09-10T21:07:47.734Z,2.97
2022-09-10T21:10:14.368Z,2.72
2022-09-10T21:12:40.866Z,2.55
2022-09-10T21:15:07.621Z,2.20
2022-09-10T21:17:34.103Z,2.03
2022-09-10T21:20:00.775Z,2.00
2022-09-10T21:22:27.551Z,2.22
2022-09-10T21:24:54.030Z,2.40
2022-09-10T21:27:20.506Z,2.10
2022-09-10T21:29:47.309Z,2.65
2022-09-10T21:32:13.788Z,2.60
2022-09-10T21:34:40.514Z,2.55
2022-09-10T21:37:07.059Z,2.75
2022-09-10T21:39:33.547Z,2.70
2022-09-10T21:42:00.087Z,2.85
2022-09-10T21:44:28.621Z,2.15
2022-09-10T21:46:55.653Z,2.70
2022-09-10T21:49:22.318Z,2.45
2022-09-10T21:51:48.980Z,2.63
2022-09-10T21:54:20.795Z,2.10
2022-09-10T21:56:48.180Z,2.13
2022-09-10T21:59:15.705Z,2.33
2022-09-10T22:01:43.920Z,2.17
2022-09-10T22:04:11.311Z,1.88
2022-09-10T22:06:37.943Z,3.03
2022-09-10T22:09:06.003Z,2.67
2022-09-10T22:11:34.152Z,2.72
2022-09-10T22:14:01.796Z,3.38
2022-09-10T22:16:29.275Z,4.57
2022-09-10T22:18:56.753Z,3.10
2022-09-10T22:21:23.525Z,2.67
2022-09-10T22:23:51.887Z,1.88
2022-09-10T22:26:19.763Z,2.20
2022-09-10T22:28:46.661Z,2.10
2022-09-10T22:31:13.258Z,2.30
2022-09-10T22:33:40.664Z,2.50
2022-09-10T22:36:14.975Z,2.70
2022-09-10T22:38:43.071Z,2.25
2022-09-10T22:41:10.373Z,3.08
2022-09-10T22:43:38.593Z,3.25
2022-09-10T22:46:07.100Z,2.60
2022-09-10T22:48:34.629Z,3.13
2022-09-10T22:51:02.195Z,2.92
2022-09-10T22:53:29.187Z,2.63
2022-09-10T22:55:55.816Z,2.75
2022-09-10T22:58:24.164Z,3.22
2022-09-10T23:00:51.355Z,6.35
2022-09-10T23:03:18.121Z,4.25
2022-09-10T23:05:44.635Z,3.78
2022-09-10T23:08:11.158Z,2.88
2022-09-10T23:10:38.580Z,3.08
2022-09-10T23:13:05.765Z,2.70
2022-09-10T23:15:32.550Z,2.42
2022-09-10T23:17:59.910Z,2.35
2022-09-10T23:20:27.283Z,2.22
2022-09-10T23:22:53.795Z,2.30
2022-09-10T23:25:20.341Z,2.90
2022-09-10T23:27:48.534Z,2.70
2022-09-10T23:30:16.189Z,2.42
2022-09-10T23:32:43.831Z,2.78
2022-09-10T23:35:10.407Z,2.20
2022-09-10T23:37:36.927Z,2.97
2022-09-10T23:40:03.935Z,2.60
2022-09-10T23:42:31.318Z,2.30
2022-09-10T23:44:57.835Z,2.40
2022-09-10T23:47:24.322Z,1.85
2022-09-10T23:49:50.858Z,2.15
2022-09-10T23:52:17.763Z,1.90
2022-09-10T23:54:44.715Z,2.13
2022-09-10T23:57:11.374Z,2.10
2022-09-10T23:59:38.047Z,1.73
